createdAt,value
2023-02-21T00:02:43.562Z,29.23
2023-02-21T00:05:28.797Z,30.63
2023-02-21T00:08:16.175Z,31.70
2023-02-21T00:11:01.273Z,26.52
2023-02-21T00:13:47.250Z,28.83
2023-02-21T00:16:35.039Z,32.83
2023-02-21T00:19:20.576Z,28.15
2023-02-21T00:24:52.847Z,30.45
2023-02-21T00:27:38.277Z,30.40
2023-02-21T00:33:09.664Z,28.50
2023-02-21T00:35:55.997Z,28.65
2023-02-21T00:38:41.456Z,29.30
2023-02-21T00:44:14.172Z,30.60
2023-02-21T00:46:59.760Z,36.05
2023-02-21T00:52:31.237Z,30.17
2023-02-21T00:55:16.465Z,34.38
2023-02-21T00:58:03.329Z,33.28
2023-02-21T01:00:48.412Z,31.52
2023-02-21T01:03:33.593Z,29.73
2023-02-21T01:06:18.873Z,30.27
2023-02-21T01:09:06.049Z,32.95
2023-02-21T01:11:51.820Z,29.48
2023-02-21T01:14:38.746Z,32.90
2023-02-21T01:17:24.433Z,33.97
2023-02-21T01:20:10.427Z,33.85
2023-02-21T01:22:57.799Z,33.08
2023-02-21T01:25:43.151Z,29.70
2023-02-21T01:31:15.531Z,29.40
2023-02-21T01:34:01.036Z,31.42
2023-02-21T01:39:32.894Z,28.77
2023-02-21T01:42:19.334Z,33.13
2023-02-21T01:45:07.900Z,30.67
2023-02-21T01:47:54.541Z,31.27
2023-02-21T01:50:43.799Z,32.85
2023-02-21T01:53:33.716Z,31.17
2023-02-21T01:56:19.905Z,33.75
2023-02-21T01:59:09.016Z,31.35
2023-02-21T02:02:03.422Z,29.25
2023-02-21T02:04:52.577Z,32.13
2023-02-21T02:07:39.156Z,30.38
2023-02-21T02:10:28.191Z,29.00
2023-02-21T02:13:12.830Z,38.67
2023-02-21T02:15:54.266Z,32.17
2023-02-21T02:18:46.952Z,35.05
2023-02-21T02:21:55.596Z,33.53
2023-02-21T02:24:44.717Z,28.40
2023-02-21T02:27:39.358Z,31.98
2023-02-21T02:30:41.689Z,32.00
2023-02-21T02:33:43.171Z,35.25
2023-02-21T02:36:16.290Z,31.63
2023-02-21T02:38:54.362Z,34.65
2023-02-21T02:41:32.702Z,32.28
2023-02-21T02:44:07.378Z,34.47
2023-02-21T02:46:39.467Z,36.00
2023-02-21T02:49:11.828Z,35.28
2023-02-21T02:51:41.290Z,34.85
2023-02-21T02:54:11.221Z,33.00
2023-02-21T02:56:39.230Z,39.17
2023-02-21T02:59:10.127Z,35.72
2023-02-21T03:01:58.230Z,33.78
2023-02-21T03:04:49.957Z,33.55
2023-02-21T03:07:27.313Z,35.83
2023-02-21T03:10:10.983Z,32.72
2023-02-21T03:12:45.116Z,33.33
2023-02-21T03:15:19.920Z,36.25
2023-02-21T03:17:52.733Z,33.17
2023-02-21T03:20:22.136Z,34.55
2023-02-21T03:22:53.402Z,32.45
2023-02-21T03:25:23.826Z,34.63
2023-02-21T03:27:56.348Z,33.33
2023-02-21T03:30:27.456Z,34.08
2023-02-21T03:32:57.017Z,32.80
2023-02-21T03:35:30.363Z,30.00
2023-02-21T03:38:01.252Z,35.50
2023-02-21T03:40:31.692Z,33.85
2023-02-21T03:43:03.430Z,33.30
2023-02-21T03:45:36.052Z,31.73
2023-02-21T03:48:12.482Z,32.17
2023-02-21T03:50:42.303Z,31.17
2023-02-21T03:53:12.413Z,34.30
2023-02-21T03:55:44.554Z,33.72
2023-02-21T03:58:19.349Z,31.60
2023-02-21T04:00:47.787Z,29.90
2023-02-21T04:03:18.741Z,31.83
2023-02-21T04:05:56.191Z,30.45
2023-02-21T04:08:25.838Z,29.30
2023-02-21T04:10:53.794Z,31.27
2023-02-21T04:13:26.137Z,31.25
2023-02-21T04:15:56.012Z,33.10
2023-02-21T04:18:24.835Z,31.90
2023-02-21T04:20:54.793Z,32.75
2023-02-21T04:23:24.803Z,30.70
2023-02-21T04:25:53.314Z,32.03
2023-02-21T04:28:28.296Z,32.47
2023-02-21T04:30:56.618Z,30.63
2023-02-21T04:33:25.709Z,32.97
2023-02-21T04:35:53.596Z,29.33
2023-02-21T04:38:37.652Z,30.48
2023-02-21T04:41:06.362Z,32.88
2023-02-21T04:43:34.417Z,35.20
2023-02-21T04:46:02.419Z,31.85
2023-02-21T04:48:30.396Z,30.38
2023-02-21T04:51:13.525Z,34.50
2023-02-21T04:53:44.306Z,35.95
2023-02-21T04:56:12.699Z,35.00
2023-02-21T04:58:45.361Z,34.05
2023-02-21T05:01:14.542Z,32.83
2023-02-21T05:03:42.671Z,29.52
2023-02-21T05:06:10.836Z,34.05
2023-02-21T05:08:38.703Z,34.47
2023-02-21T05:11:08.768Z,32.08
2023-02-21T05:13:36.637Z,37.25
2023-02-21T05:16:04.539Z,31.92
2023-02-21T05:18:34.466Z,33.75
2023-02-21T05:21:03.434Z,29.85
2023-02-21T05:23:38.407Z,31.73
2023-02-21T05:26:09.971Z,28.17
2023-02-21T05:28:38.916Z,28.63
2023-02-21T05:31:07.787Z,29.00
2023-02-21T05:33:35.765Z,31.73
2023-02-21T05:36:03.965Z,32.17
2023-02-21T05:38:31.827Z,31.77
2023-02-21T05:40:59.853Z,27.67
2023-02-21T05:43:33.686Z,25.85
2023-02-21T05:46:02.013Z,28.30
2023-02-21T05:48:30.054Z,30.88
2023-02-21T05:50:57.985Z,29.48
2023-02-21T05:53:25.905Z,29.10
2023-02-21T05:55:53.787Z,33.10
2023-02-21T05:58:21.604Z,28.98
2023-02-21T06:00:52.597Z,29.02
2023-02-21T06:03:20.877Z,28.52
2023-02-21T06:05:48.729Z,29.58
2023-02-21T06:08:16.562Z,25.88
2023-02-21T06:10:44.374Z,27.88
2023-02-21T06:13:12.232Z,27.58
2023-02-21T06:15:40.153Z,26.02
2023-02-21T06:18:09.975Z,28.25
2023-02-21T06:20:37.949Z,24.40
2023-02-21T06:23:05.881Z,26.67
2023-02-21T06:25:33.787Z,27.70
2023-02-21T06:28:01.944Z,27.73
2023-02-21T06:30:29.915Z,29.45
2023-02-21T06:32:57.798Z,27.48
2023-02-21T06:35:27.111Z,30.13
2023-02-21T06:37:55.065Z,31.52
2023-02-21T06:40:22.941Z,29.80
2023-02-21T06:42:50.909Z,29.98
2023-02-21T06:45:19.017Z,27.25
2023-02-21T06:47:46.969Z,32.60
2023-02-21T06:50:15.390Z,29.60
2023-02-21T06:52:44.682Z,28.15
2023-02-21T06:55:12.539Z,31.67
2023-02-21T06:57:40.646Z,33.15
2023-02-21T07:00:09.821Z,30.17
2023-02-21T07:02:38.756Z,33.90
2023-02-21T07:05:07.829Z,28.90
2023-02-21T07:07:35.706Z,29.98
2023-02-21T07:10:06.056Z,29.83
2023-02-21T07:12:34.508Z,25.13
2023-02-21T07:15:02.349Z,27.10
2023-02-21T07:17:30.389Z,27.10
2023-02-21T07:19:58.358Z,29.02
2023-02-21T07:22:26.634Z,29.50
2023-02-21T07:24:55.097Z,30.75
2023-02-21T07:27:24.832Z,26.63
2023-02-21T07:29:52.790Z,34.47
2023-02-21T07:32:21.929Z,29.33
2023-02-21T07:34:50.336Z,28.60
2023-02-21T07:37:18.308Z,28.25
2023-02-21T07:39:46.273Z,29.75
2023-02-21T07:42:14.549Z,32.05
2023-02-21T07:44:48.089Z,26.10
2023-02-21T07:47:16.170Z,26.20
2023-02-21T07:49:44.043Z,25.60
2023-02-21T07:52:12.103Z,25.48
2023-02-21T07:54:40.090Z,29.05
2023-02-21T07:57:08.071Z,28.33
2023-02-21T07:59:35.913Z,28.42
2023-02-21T08:02:05.669Z,26.73
2023-02-21T08:04:33.757Z,27.92
2023-02-21T08:07:02.666Z,30.48
2023-02-21T08:09:30.555Z,29.63
2023-02-21T08:11:58.379Z,33.45
2023-02-21T08:14:26.294Z,29.67
2023-02-21T08:16:54.246Z,28.05
2023-02-21T08:19:23.924Z,29.45
2023-02-21T08:21:52.046Z,29.00
2023-02-21T08:24:20.624Z,29.38
2023-02-21T08:26:48.692Z,28.33
2023-02-21T08:29:18.204Z,28.65
2023-02-21T08:31:46.458Z,25.45
2023-02-21T08:34:15.183Z,28.88
2023-02-21T08:36:45.020Z,25.45
2023-02-21T08:39:12.964Z,27.50
2023-02-21T08:41:43.309Z,29.27
2023-02-21T08:44:12.345Z,25.60
2023-02-21T08:46:40.786Z,27.10
2023-02-21T08:49:09.622Z,25.05
2023-02-21T08:51:37.865Z,28.02
2023-02-21T08:54:08.066Z,28.52
2023-02-21T08:56:35.934Z,29.55
2023-02-21T08:59:05.845Z,28.02
2023-02-21T09:01:35.429Z,55.08
2023-02-21T09:04:05.245Z,54.28
2023-02-21T09:06:33.474Z,31.45
2023-02-21T09:09:01.793Z,27.27
2023-02-21T09:11:31.088Z,29.98
2023-02-21T09:13:59.017Z,33.10
2023-02-21T09:16:26.957Z,29.73
2023-02-21T09:18:56.982Z,32.00
2023-02-21T09:21:24.973Z,29.98
2023-02-21T09:23:54.920Z,32.60
2023-02-21T09:26:25.059Z,31.42
2023-02-21T09:28:54.340Z,37.97
2023-02-21T09:31:22.704Z,34.42
2023-02-21T09:33:50.686Z,38.75
2023-02-21T09:36:23.569Z,31.95
2023-02-21T09:38:52.286Z,38.40
2023-02-21T09:41:21.864Z,40.88
2023-02-21T09:43:52.591Z,44.60
2023-02-21T09:46:31.156Z,38.70
2023-02-21T09:48:59.960Z,41.22
2023-02-21T09:51:28.104Z,43.67
2023-02-21T09:53:59.574Z,39.70
2023-02-21T09:56:31.000Z,38.83
2023-02-21T09:58:59.912Z,38.28
2023-02-21T10:01:45.063Z,41.70
2023-02-21T10:04:25.872Z,38.25
2023-02-21T10:06:59.806Z,40.05
2023-02-21T10:09:39.580Z,41.13
2023-02-21T10:12:19.103Z,43.72
2023-02-21T10:15:03.617Z,38.15
2023-02-21T10:17:37.457Z,44.55
2023-02-21T10:20:12.654Z,43.25
2023-02-21T10:22:46.332Z,42.58
2023-02-21T10:25:24.070Z,38.75
2023-02-21T10:27:54.329Z,47.00
2023-02-21T10:30:29.248Z,45.55
2023-02-21T10:32:58.851Z,43.75
2023-02-21T10:35:27.221Z,39.63
2023-02-21T10:37:57.960Z,39.30
2023-02-21T10:40:34.643Z,44.20
2023-02-21T10:43:08.508Z,46.20
2023-02-21T10:45:41.447Z,47.45
2023-02-21T10:48:12.175Z,44.38
2023-02-21T10:50:50.169Z,43.78
2023-02-21T10:53:27.771Z,42.78
2023-02-21T10:56:23.816Z,45.15
2023-02-21T10:58:55.393Z,42.00
2023-02-21T11:01:31.794Z,41.63
2023-02-21T11:04:04.129Z,39.55
2023-02-21T11:06:36.954Z,38.72
2023-02-21T11:09:31.146Z,39.65
2023-02-21T11:12:05.096Z,33.50
2023-02-21T11:14:34.449Z,41.80
2023-02-21T11:17:16.864Z,39.17
2023-02-21T11:19:49.939Z,35.97
2023-02-21T11:22:21.722Z,35.90
2023-02-21T11:25:00.889Z,38.83
2023-02-21T11:27:32.987Z,38.35
2023-02-21T11:30:03.762Z,36.75
2023-02-21T11:32:36.026Z,38.40
2023-02-21T11:35:10.159Z,35.35
2023-02-21T11:37:51.064Z,33.10
2023-02-21T11:40:29.393Z,35.58
2023-02-21T11:43:22.249Z,36.55
2023-02-21T11:46:03.119Z,35.30
2023-02-21T11:48:36.806Z,35.33
2023-02-21T11:51:15.063Z,32.55
2023-02-21T11:53:44.971Z,30.92
2023-02-21T11:56:21.211Z,30.85
2023-02-21T11:58:59.746Z,32.03
2023-02-21T12:01:32.385Z,29.55
2023-02-21T12:04:11.849Z,26.92
2023-02-21T12:06:49.043Z,29.83
2023-02-21T12:09:26.804Z,32.13
2023-02-21T12:12:07.947Z,34.88
2023-02-21T12:14:48.821Z,31.10
2023-02-21T12:17:47.013Z,34.67
2023-02-21T12:20:34.177Z,30.70
2023-02-21T12:23:16.732Z,30.48
2023-02-21T12:26:28.626Z,31.48
2023-02-21T12:29:21.897Z,31.60
2023-02-21T12:32:03.597Z,30.38
2023-02-21T12:34:47.743Z,32.13
2023-02-21T12:37:24.744Z,31.75
2023-02-21T12:40:13.113Z,28.73
2023-02-21T12:42:52.470Z,30.25
2023-02-21T12:45:38.461Z,36.10
2023-02-21T12:48:13.596Z,34.13
2023-02-21T12:50:44.871Z,31.70
2023-02-21T12:53:17.457Z,31.05
2023-02-21T12:55:52.729Z,29.55
2023-02-21T13:00:57.058Z,28.77
2023-02-21T13:03:37.413Z,32.05
2023-02-21T13:06:11.276Z,27.02
2023-02-21T13:08:52.071Z,31.30
2023-02-21T13:11:28.442Z,31.70
2023-02-21T13:13:57.443Z,31.88
2023-02-21T13:16:26.867Z,34.67
2023-02-21T13:19:00.297Z,30.40
2023-02-21T13:21:45.624Z,31.75
2023-02-21T13:24:42.902Z,31.10
2023-02-21T13:27:40.794Z,28.95
2023-02-21T13:30:15.920Z,29.92
2023-02-21T13:32:53.909Z,27.73
2023-02-21T13:35:27.976Z,31.42
2023-02-21T13:37:56.921Z,26.83
2023-02-21T13:40:32.821Z,29.10
2023-02-21T13:43:11.932Z,25.77
2023-02-21T13:45:40.407Z,25.85
2023-02-21T13:48:29.355Z,30.08
2023-02-21T13:50:59.037Z,27.77
2023-02-21T13:53:33.810Z,30.05
2023-02-21T13:56:19.135Z,25.65
2023-02-21T13:58:49.703Z,26.55
2023-02-21T14:01:26.794Z,27.45
2023-02-21T14:03:58.865Z,30.52
2023-02-21T14:06:34.769Z,27.73
2023-02-21T14:09:14.376Z,25.45
2023-02-21T14:11:48.130Z,30.60
2023-02-21T14:14:27.216Z,30.38
2023-02-21T14:17:02.267Z,25.88
2023-02-21T14:19:36.802Z,28.48
2023-02-21T14:22:11.636Z,29.25
2023-02-21T14:24:43.363Z,28.77
2023-02-21T14:27:34.956Z,28.73
2023-02-21T14:30:33.955Z,28.35
2023-02-21T14:33:19.234Z,29.90
2023-02-21T14:38:22.466Z,30.83
2023-02-21T14:41:04.959Z,30.92
2023-02-21T14:43:56.126Z,31.02
2023-02-21T14:46:48.105Z,30.77
2023-02-21T14:49:55.634Z,34.60
2023-02-21T14:52:38.868Z,31.80
2023-02-21T14:55:27.193Z,32.20
2023-02-21T14:58:30.678Z,34.67
2023-02-21T15:01:09.446Z,36.30
2023-02-21T15:03:45.561Z,36.25
2023-02-21T15:06:21.089Z,35.78
2023-02-21T15:08:51.085Z,37.97
2023-02-21T15:11:26.308Z,34.05
2023-02-21T15:16:45.472Z,40.03
2023-02-21T15:19:25.185Z,38.75
2023-02-21T15:22:17.448Z,35.13
2023-02-21T15:25:12.338Z,37.55
2023-02-21T15:30:24.901Z,38.17
2023-02-21T15:32:59.926Z,37.40
2023-02-21T15:35:33.595Z,37.22
2023-02-21T15:38:04.574Z,38.58
2023-02-21T15:40:32.783Z,39.33
2023-02-21T15:43:02.167Z,34.67
2023-02-21T15:45:34.483Z,36.88
2023-02-21T15:48:03.413Z,35.95
2023-02-21T15:50:36.988Z,37.53
2023-02-21T15:53:17.086Z,37.88
2023-02-21T15:55:46.007Z,39.40
2023-02-21T15:58:18.012Z,40.40
2023-02-21T16:00:47.395Z,37.70
2023-02-21T16:03:50.430Z,38.17
2023-02-21T16:06:23.694Z,41.05
2023-02-21T16:08:58.947Z,39.10
2023-02-21T16:11:39.662Z,40.15
2023-02-21T16:14:08.517Z,39.72
2023-02-21T16:16:37.014Z,41.03
2023-02-21T16:19:05.076Z,40.42
2023-02-21T16:21:35.313Z,43.78
2023-02-21T16:24:17.047Z,41.78
2023-02-21T16:27:03.185Z,45.92
2023-02-21T16:29:31.071Z,43.30
2023-02-21T16:31:59.175Z,44.97
2023-02-21T16:34:29.874Z,47.95
2023-02-21T16:37:05.650Z,51.05
2023-02-21T16:42:01.774Z,49.03
2023-02-21T16:44:30.054Z,52.00
2023-02-21T16:46:57.969Z,54.92
2023-02-21T16:49:26.064Z,55.15
2023-02-21T16:51:54.445Z,56.30
2023-02-21T16:54:23.784Z,63.05
2023-02-21T16:56:54.452Z,61.83
2023-02-21T16:59:25.547Z,61.55
2023-02-21T17:01:53.582Z,63.35
2023-02-21T17:04:25.159Z,60.55
2023-02-21T17:06:55.822Z,60.95
2023-02-21T17:09:27.684Z,60.42
2023-02-21T17:11:56.146Z,57.10
2023-02-21T17:14:24.042Z,64.72
2023-02-21T17:16:51.906Z,61.00
2023-02-21T17:19:21.706Z,61.08
2023-02-21T17:21:50.711Z,66.80
2023-02-21T17:24:20.028Z,60.47
2023-02-21T17:26:49.299Z,60.22
2023-02-21T17:29:17.213Z,59.20
2023-02-21T17:31:45.181Z,63.70
2023-02-21T17:34:14.020Z,64.88
2023-02-21T17:36:42.056Z,58.88
2023-02-21T17:39:10.871Z,59.53
2023-02-21T17:41:45.790Z,61.42
2023-02-21T17:44:15.959Z,58.75
2023-02-21T17:46:48.394Z,63.17
2023-02-21T17:49:18.693Z,62.83
2023-02-21T17:51:47.648Z,62.50
2023-02-21T17:54:16.366Z,60.30
2023-02-21T17:56:44.402Z,57.90
2023-02-21T17:59:13.010Z,55.33
2023-02-21T18:01:42.974Z,58.63
2023-02-21T18:04:13.607Z,60.65
2023-02-21T18:06:42.037Z,57.35
2023-02-21T18:09:11.016Z,59.38
2023-02-21T18:11:39.055Z,57.85
2023-02-21T18:14:07.002Z,58.33
2023-02-21T18:16:34.950Z,59.60
2023-02-21T18:19:04.266Z,62.70
2023-02-21T18:21:32.186Z,58.47
2023-02-21T18:24:00.346Z,60.03
2023-02-21T18:26:28.280Z,58.80
2023-02-21T18:28:56.253Z,63.22
2023-02-21T18:31:24.357Z,66.93
2023-02-21T18:33:52.322Z,59.38
2023-02-21T18:36:21.555Z,59.88
2023-02-21T18:38:49.598Z,61.92
2023-02-21T18:41:20.311Z,65.72
2023-02-21T18:43:48.278Z,65.18
2023-02-21T18:46:19.141Z,59.83
2023-02-21T18:48:48.858Z,59.47
2023-02-21T18:51:20.054Z,67.28
2023-02-21T18:53:49.973Z,65.45
2023-02-21T18:56:20.806Z,59.45
2023-02-21T18:58:49.681Z,58.78
2023-02-21T19:01:20.766Z,64.68
2023-02-21T19:03:51.793Z,61.97
2023-02-21T19:06:21.161Z,62.28
2023-02-21T19:08:51.037Z,64.00
2023-02-21T19:11:19.241Z,64.50
2023-02-21T19:13:50.312Z,64.18
2023-02-21T19:16:20.615Z,67.47
2023-02-21T19:18:51.390Z,63.63
2023-02-21T19:21:19.333Z,55.45
2023-02-21T19:23:47.680Z,60.97
2023-02-21T19:26:17.096Z,60.60
2023-02-21T19:28:45.598Z,67.47
2023-02-21T19:31:15.131Z,70.70
2023-02-21T19:33:44.822Z,71.05
2023-02-21T19:36:13.363Z,66.00
2023-02-21T19:38:41.410Z,68.25
2023-02-21T19:41:09.944Z,73.78
2023-02-21T19:43:39.225Z,60.42
2023-02-21T19:46:07.394Z,61.10
2023-02-21T19:48:35.346Z,62.05
2023-02-21T19:51:03.409Z,65.03
2023-02-21T19:53:31.424Z,69.75
2023-02-21T19:55:59.367Z,67.85
2023-02-21T19:58:27.212Z,70.70
2023-02-21T20:00:56.649Z,71.32
2023-02-21T20:03:24.594Z,58.80
2023-02-21T20:05:52.630Z,66.00
2023-02-21T20:08:20.709Z,65.13
2023-02-21T20:10:49.092Z,66.57
2023-02-21T20:13:17.083Z,60.95
2023-02-21T20:15:45.452Z,63.97
2023-02-21T20:18:15.609Z,77.03
2023-02-21T20:20:43.822Z,72.00
2023-02-21T20:23:13.956Z,76.35
2023-02-21T20:25:41.850Z,70.65
2023-02-21T20:28:09.753Z,86.40
2023-02-21T20:30:38.467Z,67.70
2023-02-21T20:33:06.842Z,67.32
2023-02-21T20:35:36.431Z,77.03
2023-02-21T20:38:05.825Z,71.05
2023-02-21T20:40:33.830Z,97.93
2023-02-21T20:43:02.514Z,66.72
2023-02-21T20:45:30.532Z,61.58
2023-02-21T20:47:58.546Z,63.75
2023-02-21T20:50:26.531Z,57.40
2023-02-21T20:52:55.800Z,74.50
2023-02-21T20:55:25.157Z,74.70
2023-02-21T20:57:53.099Z,57.65
2023-02-21T21:00:23.553Z,66.70
2023-02-21T21:02:51.778Z,67.85
2023-02-21T21:05:21.133Z,72.22
2023-02-21T21:07:49.466Z,51.13
2023-02-21T21:10:19.306Z,62.78
2023-02-21T21:12:49.426Z,51.58
2023-02-21T21:15:18.062Z,49.15
2023-02-21T21:17:46.589Z,61.90
2023-02-21T21:20:17.763Z,61.28
2023-02-21T21:22:46.451Z,72.82
2023-02-21T21:25:14.988Z,72.80
2023-02-21T21:27:45.202Z,69.30
2023-02-21T21:30:18.115Z,67.45
2023-02-21T21:32:46.883Z,86.40
2023-02-21T21:35:17.661Z,47.92
2023-02-21T21:37:45.479Z,58.95
2023-02-21T21:40:16.857Z,60.88
2023-02-21T21:42:48.982Z,42.63
2023-02-21T21:45:23.908Z,53.20
2023-02-21T21:47:53.853Z,56.38
2023-02-21T21:50:22.816Z,57.38
2023-02-21T21:52:52.688Z,43.88
2023-02-21T21:55:24.349Z,49.92
2023-02-21T21:57:54.910Z,40.80
2023-02-21T22:00:26.014Z,37.80
2023-02-21T22:02:57.419Z,79.38
2023-02-21T22:05:26.081Z,92.97
2023-02-21T22:07:54.240Z,50.65
2023-02-21T22:10:23.962Z,84.78
2023-02-21T22:12:55.983Z,55.03
2023-02-21T22:15:26.725Z,72.82
2023-02-21T22:17:55.270Z,83.38
2023-02-21T22:20:31.259Z,77.95
2023-02-21T22:23:00.075Z,77.70
2023-02-21T22:25:30.369Z,66.38
2023-02-21T22:28:03.831Z,85.38
2023-02-21T22:30:31.874Z,102.95
2023-02-21T22:32:59.902Z,74.53
2023-02-21T22:35:28.569Z,88.82
2023-02-21T22:38:01.934Z,120.20
2023-02-21T22:40:31.097Z,103.75
2023-02-21T22:43:02.902Z,84.68
2023-02-21T22:45:33.152Z,107.72
2023-02-21T22:48:03.321Z,98.43
2023-02-21T22:50:36.929Z,100.28
2023-02-21T22:53:08.243Z,101.50
2023-02-21T22:55:38.118Z,122.20
2023-02-21T22:58:09.976Z,97.10
2023-02-21T23:00:39.228Z,122.05
2023-02-21T23:03:13.074Z,107.68
2023-02-21T23:05:43.564Z,118.10
2023-02-21T23:08:12.873Z,115.47
2023-02-21T23:10:42.458Z,95.75
2023-02-21T23:13:14.175Z,97.75
2023-02-21T23:15:43.180Z,110.32
2023-02-21T23:18:13.051Z,122.18
2023-02-21T23:20:44.736Z,112.57
2023-02-21T23:23:14.058Z,128.45
2023-02-21T23:25:41.897Z,128.88
2023-02-21T23:28:14.422Z,114.30
2023-02-21T23:30:43.887Z,91.53
2023-02-21T23:33:15.664Z,123.97
2023-02-21T23:35:44.324Z,110.10
2023-02-21T23:38:15.532Z,141.20
2023-02-21T23:40:44.716Z,122.88
2023-02-21T23:43:19.182Z,131.65
2023-02-21T23:45:48.243Z,108.40
2023-02-21T23:48:16.491Z,119.15
2023-02-21T23:50:46.491Z,100.50
2023-02-21T23:53:16.125Z,105.43
2023-02-21T23:55:46.787Z,138.70
2023-02-21T23:58:19.712Z,145.27
